Time,TemperatureF,DewpointF,PressureIn,WindDirection,WindDirectionDegrees,WindSpeedMPH,WindSpeedGustMPH,Humidity,HourlyPrecipIn,Conditions,Clouds,dailyrainin,SoftwareType,DateUTC
2013-01-20 00:10:00,14.4,9.4,30.00,SSE,168,0.0,0.0,80,0.00,,,0.00,Wunderground v.1.13,2013-01-20 05:10:00,
2013-01-20 00:30:00,14.3,9.3,29.99,WSW,239,0.0,0.0,80,0.00,,,0.00,Wunderground v.1.13,2013-01-20 05:30:00,
2013-01-20 00:40:00,14.1,9.1,29.99,WSW,237,0.0,0.0,80,0.00,,,0.00,Wunderground v.1.13,2013-01-20 05:40:00,
2013-01-20 01:00:00,14.1,9.3,29.98,West,268,0.0,1.0,81,0.00,,,0.00,Wunderground v.1.13,2013-01-20 06:00:00,
2013-01-20 01:10:00,14.0,9.2,29.98,SSW,209,1.0,2.0,81,0.00,,,0.00,Wunderground v.1.13,2013-01-20 06:10:00,
2013-01-20 01:30:00,14.0,9.2,29.96,SSW,209,0.0,1.0,81,0.00,,,0.00,Wunderground v.1.13,2013-01-20 06:30:00,
2013-01-20 01:40:00,14.0,9.5,29.96,West,263,0.0,0.0,82,0.00,,,0.00,Wunderground v.1.13,2013-01-20 06:40:00,
2013-01-20 02:00:00,14.1,9.6,29.96,SSE,167,0.0,0.0,82,0.00,,,0.00,Wunderground v.1.13,2013-01-20 07:00:00,
2013-01-20 02:10:00,14.3,10.1,29.96,SSW,208,0.0,0.0,83,0.00,,,0.00,Wunderground v.1.13,2013-01-20 07:10:00,
2013-01-20 02:30:00,14.4,10.4,29.94,North,352,0.0,1.0,84,0.00,,,0.00,Wunderground v.1.13,2013-01-20 07:30:00,
2013-01-20 02:40:00,14.6,10.4,29.94,WSW,247,0.0,0.0,83,0.00,,,0.00,Wunderground v.1.13,2013-01-20 07:40:00,
2013-01-20 03:00:00,14.9,10.9,29.91,SW,223,1.0,1.0,84,0.00,,,0.00,Wunderground v.1.13,2013-01-20 08:00:00,
2013-01-20 03:10:00,15.1,11.1,29.91,South,181,1.0,1.0,84,0.00,,,0.00,Wunderground v.1.13,2013-01-20 08:10:00,
2013-01-20 03:30:00,15.7,12.0,29.87,WSW,251,1.0,2.0,85,0.00,,,0.00,Wunderground v.1.13,2013-01-20 08:30:00,
2013-01-20 03:40:00,16.4,12.4,29.87,SSW,209,2.0,2.0,84,0.00,,,0.00,Wunderground v.1.13,2013-01-20 08:40:00,
2013-01-20 03:50:00,16.5,12.2,29.86,WNW,299,1.0,2.0,83,0.00,,,0.00,Wunderground v.1.13,2013-01-20 08:50:00,
2013-01-20 04:00:00,16.5,12.0,29.86,West,275,2.0,3.0,82,0.00,,,0.00,Wunderground v.1.13,2013-01-20 09:00:00,
2013-01-20 04:10:00,16.5,11.4,29.86,SSW,195,2.0,2.0,80,0.00,,,0.00,Wunderground v.1.13,2013-01-20 09:10:00,
2013-01-20 04:20:00,16.5,11.4,29.86,North,0,3.0,3.0,80,0.00,,,0.00,Wunderground v.1.13,2013-01-20 09:20:00,
2013-01-20 04:30:00,16.4,11.6,29.86,NW,313,2.0,7.0,81,0.00,,,0.00,Wunderground v.1.13,2013-01-20 09:30:00,
2013-01-20 04:40:00,16.4,11.6,29.86,NW,308,3.0,3.0,81,0.00,,,0.00,Wunderground v.1.13,2013-01-20 09:40:00,
2013-01-20 05:00:00,16.2,11.9,29.83,WNW,285,2.0,3.0,83,0.00,,,0.00,Wunderground v.1.13,2013-01-20 10:00:00,
2013-01-20 05:10:00,16.2,11.9,29.83,NW,316,2.0,6.0,83,0.00,,,0.00,Wunderground v.1.13,2013-01-20 10:10:00,
2013-01-20 05:30:00,16.4,12.4,29.80,NW,313,1.0,1.0,84,0.00,,,0.00,Wunderground v.1.13,2013-01-20 10:30:00,
2013-01-20 05:40:00,16.5,12.5,29.80,WNW,289,2.0,2.0,84,0.00,,,0.00,Wunderground v.1.13,2013-01-20 10:40:00,
2013-01-20 06:00:00,16.7,12.7,29.78,WNW,301,2.0,2.0,84,0.00,,,0.00,Wunderground v.1.13,2013-01-20 11:00:00,
2013-01-20 06:10:00,16.9,13.2,29.78,WNW,294,1.0,1.0,85,0.00,,,0.00,Wunderground v.1.13,2013-01-20 11:10:00,
2013-01-20 06:30:00,17.0,13.3,29.75,WNW,298,1.0,2.0,85,0.00,,,0.00,Wunderground v.1.13,2013-01-20 11:30:00,
2013-01-20 06:40:00,17.2,13.2,29.75,SSW,203,1.0,2.0,84,0.00,,,0.00,Wunderground v.1.13,2013-01-20 11:40:00,
2013-01-20 07:00:00,17.5,13.8,29.71,West,265,1.0,1.0,85,0.00,,,0.00,Wunderground v.1.13,2013-01-20 12:00:00,
2013-01-20 07:10:00,17.7,13.7,29.71,WNW,292,1.0,6.0,84,0.00,,,0.00,Wunderground v.1.13,2013-01-20 12:10:00,
2013-01-20 07:30:00,18.1,13.8,29.67,WNW,287,1.0,3.0,83,0.00,,,0.00,Wunderground v.1.13,2013-01-20 12:30:00,
2013-01-20 07:40:00,18.3,14.3,29.67,NW,318,1.0,1.0,84,0.00,,,0.00,Wunderground v.1.13,2013-01-20 12:40:00,
2013-01-20 07:51:00,18.4,14.4,29.65,NW,312,1.0,1.0,84,0.00,,,0.00,Wunderground v.1.13,2013-01-20 12:51:00,
2013-01-20 08:00:00,18.8,14.5,29.64,WNW,302,1.0,1.0,83,0.00,,,0.00,Wunderground v.1.13,2013-01-20 13:00:00,
2013-01-20 08:10:00,18.9,14.9,29.64,NW,306,1.0,1.0,84,0.00,,,0.00,Wunderground v.1.13,2013-01-20 13:10:00,
2013-01-20 08:30:00,19.4,15.4,29.59,NW,312,1.0,1.0,84,0.00,,,0.00,Wunderground v.1.13,2013-01-20 13:30:00,
2013-01-20 08:40:00,19.5,15.5,29.59,West,265,1.0,1.0,84,0.00,,,0.00,Wunderground v.1.13,2013-01-20 13:40:00,
2013-01-20 09:00:00,19.9,15.8,29.56,SW,215,1.0,1.0,84,0.00,,,0.00,Wunderground v.1.13,2013-01-20 14:00:00,
2013-01-20 09:10:00,20.2,16.1,29.56,WNW,292,1.0,1.0,84,0.00,,,0.00,Wunderground v.1.13,2013-01-20 14:10:00,
2013-01-20 09:30:00,20.8,16.7,29.53,WNW,292,1.0,1.0,84,0.00,,,0.00,Wunderground v.1.13,2013-01-20 14:30:00,
2013-01-20 09:40:00,21.3,17.2,29.53,SW,227,0.0,0.0,84,0.00,,,0.00,Wunderground v.1.13,2013-01-20 14:40:00,
2013-01-20 10:00:00,22.4,18.6,29.50,NNW,330,2.0,8.0,85,0.00,,,0.00,Wunderground v.1.13,2013-01-20 15:00:00,
2013-01-20 10:10:00,23.0,19.4,29.50,NW,322,2.0,3.0,86,0.00,,,0.00,Wunderground v.1.13,2013-01-20 15:10:00,
2013-01-20 10:20:00,23.3,19.7,29.48,NW,306,1.0,2.0,86,0.00,,,0.00,Wunderground v.1.13,2013-01-20 15:20:00,
2013-01-20 10:30:00,23.5,19.9,29.45,NW,306,3.0,3.0,86,0.00,,,0.00,Wunderground v.1.13,2013-01-20 15:30:00,
2013-01-20 10:40:00,23.6,20.3,29.45,WNW,284,3.0,3.0,87,0.00,,,0.00,Wunderground v.1.13,2013-01-20 15:40:00,
2013-01-20 11:00:00,24.1,20.5,29.41,NW,322,2.0,6.0,86,0.00,,,0.00,Wunderground v.1.13,2013-01-20 16:00:00,
2013-01-20 11:10:00,24.2,20.9,29.41,North,359,2.0,3.0,87,0.00,,,0.00,Wunderground v.1.13,2013-01-20 16:10:00,
2013-01-20 11:30:00,24.5,21.2,29.37,NNW,343,2.0,2.0,87,0.00,,,0.00,Wunderground v.1.13,2013-01-20 16:30:00,
2013-01-20 11:40:00,24.8,21.8,29.37,WNW,291,2.0,2.0,88,0.00,,,0.00,Wunderground v.1.13,2013-01-20 16:40:00,
2013-01-20 11:51:00,25.3,22.2,29.34,NW,319,2.0,2.0,88,0.00,,,0.00,Wunderground v.1.13,2013-01-20 16:51:00,
2013-01-20 12:00:00,25.4,22.3,29.32,NW,319,2.0,4.0,88,0.00,,,0.00,Wunderground v.1.13,2013-01-20 17:00:00,
2013-01-20 12:10:00,25.7,22.6,29.32,NW,312,2.0,2.0,88,0.00,,,0.00,Wunderground v.1.13,2013-01-20 17:10:00,
2013-01-20 12:30:00,26.7,24.2,29.32,ENE,75,2.0,2.0,90,0.00,,,0.00,Wunderground v.1.13,2013-01-20 17:30:00,
2013-01-20 12:40:00,27.0,24.5,29.32,East,100,1.0,1.0,90,0.00,,,0.00,Wunderground v.1.13,2013-01-20 17:40:00,
2013-01-20 12:50:00,27.2,24.7,29.31,East,100,0.0,0.0,90,0.00,,,0.00,Wunderground v.1.13,2013-01-20 17:50:00,
2013-01-20 13:00:00,27.8,25.2,29.29,North,11,1.0,1.0,90,0.00,,,0.00,Wunderground v.1.13,2013-01-20 18:00:00,
2013-01-20 13:10:00,28.7,26.4,29.29,NNW,343,1.0,3.0,91,0.00,,,0.00,Wunderground v.1.13,2013-01-20 18:10:00,
2013-01-20 13:30:00,30.0,26.6,29.28,NW,326,2.0,3.0,87,0.00,,,0.00,Wunderground v.1.13,2013-01-20 18:30:00,
2013-01-20 13:40:00,30.1,27.0,29.28,NNW,346,2.0,2.0,88,0.00,,,0.00,Wunderground v.1.13,2013-01-20 18:40:00,
2013-01-20 14:00:00,30.9,27.8,29.27,NW,315,3.0,3.0,88,0.00,,,0.00,Wunderground v.1.13,2013-01-20 19:00:00,
2013-01-20 14:10:00,31.0,27.9,29.27,NW,326,5.0,5.0,88,0.00,,,0.00,Wunderground v.1.13,2013-01-20 19:10:00,
2013-01-20 14:30:00,31.9,28.5,29.27,North,354,4.0,4.0,87,0.00,,,0.00,Wunderground v.1.13,2013-01-20 19:30:00,
2013-01-20 14:40:00,31.9,28.5,29.27,North,3,2.0,3.0,87,0.00,,,0.00,Wunderground v.1.13,2013-01-20 19:40:00,
2013-01-20 15:00:00,32.2,29.9,29.28,NNW,336,2.0,2.0,91,0.00,,,0.00,Wunderground v.1.13,2013-01-20 20:00:00,
2013-01-20 15:10:00,32.5,31.5,29.28,North,349,2.0,2.0,96,0.00,,,0.00,Wunderground v.1.13,2013-01-20 20:10:00,
2013-01-20 15:30:00,33.1,32.6,29.28,North,359,2.0,2.0,98,0.00,,,0.00,Wunderground v.1.13,2013-01-20 20:30:00,
2013-01-20 15:40:00,32.8,31.5,29.28,North,352,2.0,2.0,95,0.00,,,0.00,Wunderground v.1.13,2013-01-20 20:40:00,
2013-01-20 16:00:00,32.7,30.1,29.28,NNW,339,1.0,1.0,90,0.00,,,0.00,Wunderground v.1.13,2013-01-20 21:00:00,
2013-01-20 16:10:00,33.0,31.5,29.31,North,0,5.0,27.0,94,0.00,,,0.00,Wunderground v.1.13,2013-01-20 21:10:00,
2013-01-20 16:30:00,31.8,28.9,29.30,East,82,4.0,6.0,89,0.00,,,0.00,Wunderground v.1.13,2013-01-20 21:30:00,
2013-01-20 16:40:00,31.5,28.1,29.30,NW,308,3.0,3.0,87,0.00,,,0.00,Wunderground v.1.13,2013-01-20 21:40:00,
2013-01-20 16:50:00,31.3,27.0,29.31,North,7,3.0,3.0,84,0.00,,,0.00,Wunderground v.1.13,2013-01-20 21:50:00,
2013-01-20 17:00:00,31.0,25.2,29.31,NNE,17,4.0,4.0,79,0.00,,,0.00,Wunderground v.1.13,2013-01-20 22:00:00,
2013-01-20 17:10:00,30.6,23.9,29.31,NNE,16,3.0,8.0,76,0.00,,,0.00,Wunderground v.1.13,2013-01-20 22:10:00,
2013-01-20 17:30:00,30.3,22.7,29.32,WSW,247,5.0,7.0,73,0.00,,,0.00,Wunderground v.1.13,2013-01-20 22:30:00,
2013-01-20 17:40:00,30.0,22.7,29.32,NE,47,3.0,13.0,74,0.00,,,0.00,Wunderground v.1.13,2013-01-20 22:40:00,
2013-01-20 17:50:00,29.7,22.4,29.32,ENE,75,6.0,7.0,74,0.00,,,0.00,Wunderground v.1.13,2013-01-20 22:50:00,
2013-01-20 18:00:00,29.4,22.8,29.33,East,89,7.0,7.0,76,0.00,,,0.00,Wunderground v.1.13,2013-01-20 23:00:00,
2013-01-20 18:10:00,29.0,22.1,29.33,NNE,24,4.0,4.0,75,0.00,,,0.00,Wunderground v.1.13,2013-01-20 23:10:00,
2013-01-20 18:30:00,29.0,21.1,29.35,North,0,5.0,11.0,72,0.00,,,0.00,Wunderground v.1.13,2013-01-20 23:30:00,
2013-01-20 18:40:00,28.5,18.2,29.36,North,0,6.0,19.0,65,0.00,,,0.00,Wunderground v.1.13,2013-01-20 23:40:00,
2013-01-20 19:00:00,27.2,18.0,29.37,NNW,343,7.0,7.0,68,0.00,,,0.00,Wunderground v.1.13,2013-01-21 00:00:00,
2013-01-20 19:10:00,27.0,18.2,29.37,ESE,120,5.0,5.0,69,0.00,,,0.00,Wunderground v.1.13,2013-01-21 00:10:00,
2013-01-20 19:30:00,26.1,16.3,29.40,NNE,30,5.0,5.0,66,0.00,,,0.00,Wunderground v.1.13,2013-01-21 00:30:00,
2013-01-20 19:40:00,25.7,15.9,29.40,North,0,5.0,5.0,66,0.00,,,0.00,Wunderground v.1.13,2013-01-21 00:40:00,
2013-01-20 19:50:00,24.2,18.3,29.41,North,10,6.0,14.0,78,0.00,,,0.00,Wunderground v.1.13,2013-01-21 00:50:00,
2013-01-20 20:00:00,23.2,19.1,29.42,NE,48,7.0,7.0,84,0.00,,,0.00,Wunderground v.1.13,2013-01-21 01:00:00,
2013-01-20 20:10:00,21.8,13.8,29.42,WNW,296,6.0,6.0,71,0.00,,,0.00,Wunderground v.1.13,2013-01-21 01:10:00,
2013-01-20 20:30:00,18.9,10.1,29.47,NE,56,7.0,7.0,68,0.00,,,0.00,Wunderground v.1.13,2013-01-21 01:30:00,
2013-01-20 20:40:00,17.3,6.5,29.47,NNE,24,7.0,8.0,62,0.00,,,0.00,Wunderground v.1.13,2013-01-21 01:40:00,
2013-01-20 21:10:00,12.9,4.0,29.51,East,82,7.0,12.0,67,0.00,,,0.00,Wunderground v.1.13,2013-01-21 02:10:00,
2013-01-20 21:30:00,10.2,-2.0,29.55,ESE,104,8.0,10.0,57,0.00,,,0.00,Wunderground v.1.13,2013-01-21 02:30:00,
2013-01-20 21:40:00,9.2,-3.0,29.55,NW,326,6.0,6.0,57,0.00,,,0.00,Wunderground v.1.13,2013-01-21 02:40:00,
2013-01-20 22:00:00,7.2,-4.5,29.59,East,86,8.0,12.0,58,0.00,,,0.00,Wunderground v.1.13,2013-01-21 03:00:00,
2013-01-20 22:10:00,6.3,-5.3,29.59,NNE,30,8.0,8.0,58,0.00,,,0.00,Wunderground v.1.13,2013-01-21 03:10:00,
2013-01-20 22:30:00,4.7,-6.5,29.61,WNW,282,7.0,7.0,59,0.00,,,0.00,Wunderground v.1.13,2013-01-21 03:30:00,
2013-01-20 22:40:00,3.9,-8.0,29.61,SE,137,5.0,5.0,57,0.00,,,0.00,Wunderground v.1.13,2013-01-21 03:40:00,
2013-01-20 23:00:00,3.0,-9.5,29.65,ESE,104,6.0,6.0,55,0.00,,,0.00,Wunderground v.1.13,2013-01-21 04:00:00,
2013-01-20 23:10:00,2.6,-9.2,29.65,ENE,61,3.0,11.0,57,0.00,,,0.00,Wunderground v.1.13,2013-01-21 04:10:00,
2013-01-20 23:30:00,2.2,-9.9,29.65,NE,54,4.0,4.0,56,0.00,,,0.00,Wunderground v.1.13,2013-01-21 04:30:00,
2013-01-20 23:40:00,1.8,-10.0,29.65,North,359,4.0,5.0,57,0.00,,,0.00,Wunderground v.1.13,2013-01-21 04:40:00,